Time;durP1;ratioP1;P1;durP2;ratioP2;P2;SDS_P1;SDS_P2;PMS_P1;PMS_P2;Temp;Humidity;BMP_temperature;BMP_pressure;BME280_temperature;BME280_humidity;BME280_pressure;Samples;Min_cycle;Max_cycle;Signal;HPM_P1;HPM_P2
2022/04/14 00:01:21;;;;;;;8.70;6.37;;;;;;;;;;4993005;28;20841;-49
2022/04/14 00:03:48;;;;;;;8.33;6.80;;;;;;;;;;4993531;28;20425;-52
2022/04/14 00:06:14;;;;;;;7.37;6.60;;;;;;;;;;4993174;28;20430;-50
2022/04/14 00:08:40;;;;;;;7.60;6.40;;;;;;;;;;4992821;28;20845;-51
2022/04/14 00:11:06;;;;;;;8.97;8.07;;;;;;;;;;4992128;28;20457;-51
2022/04/14 00:13:32;;;;;;;11.00;8.60;;;;;;;;;;4992783;28;20435;-50
2022/04/14 00:15:58;;;;;;;9.37;7.90;;;;;;;;;;4992438;28;20490;-52
2022/04/14 00:18:24;;;;;;;13.00;8.77;;;;;;;;;;4992641;28;20424;-50
2022/04/14 00:20:50;;;;;;;9.50;8.33;;;;;;;;;;4992738;28;20405;-51
2022/04/14 00:23:16;;;;;;;9.90;8.33;;;;;;;;;;4992558;28;20557;-51
2022/04/14 00:25:42;;;;;;;12.30;8.80;;;;;;;;;;4992306;28;20438;-50
2022/04/14 00:28:08;;;;;;;13.67;9.57;;;;;;;;;;4992479;28;20427;-50
2022/04/14 00:30:34;;;;;;;13.13;8.90;;;;;;;;;;4992689;28;20838;-50
2022/04/14 00:33:01;;;;;;;10.90;8.70;;;;;;;;;;4992198;28;20423;-49
2022/04/14 00:35:27;;;;;;;13.70;8.63;;;;;;;;;;4992343;28;20421;-50
2022/04/14 00:37:53;;;;;;;13.30;9.27;;;;;;;;;;4992164;28;21001;-51
2022/04/14 00:40:19;;;;;;;16.63;10.07;;;;;;;;;;4992527;28;20388;-51
2022/04/14 00:42:45;;;;;;;13.87;9.83;;;;;;;;;;4992041;28;20437;-51
2022/04/14 00:45:11;;;;;;;13.10;9.90;;;;;;;;;;4991936;28;20409;-50
2022/04/14 00:47:37;;;;;;;17.37;11.17;;;;;;;;;;4990173;28;20428;-51
2022/04/14 00:50:04;;;;;;;15.93;10.97;;;;;;;;;;4991577;28;20488;-50
2022/04/14 00:52:30;;;;;;;15.67;11.97;;;;;;;;;;4991931;28;20825;-52
2022/04/14 00:54:56;;;;;;;15.90;11.73;;;;;;;;;;4992140;28;20403;-51
2022/04/14 00:57:22;;;;;;;17.63;12.50;;;;;;;;;;4991898;28;20434;-51
2022/04/14 00:59:48;;;;;;;13.47;11.53;;;;;;;;;;4992435;28;20419;-50
2022/04/14 01:02:14;;;;;;;17.83;13.20;;;;;;;;;;4991589;28;20417;-50
2022/04/14 01:04:41;;;;;;;17.87;13.30;;;;;;;;;;4991349;28;20469;-51
2022/04/14 01:07:07;;;;;;;20.40;13.07;;;;;;;;;;4991783;28;20896;-51
2022/04/14 01:09:34;;;;;;;15.83;12.67;;;;;;;;;;4991511;28;20984;-50
2022/04/14 01:12:00;;;;;;;18.97;14.07;;;;;;;;;;4992025;28;20413;-50
2022/04/14 01:14:29;;;;;;;18.93;13.60;;;;;;;;;;4991843;28;20540;-51
2022/04/14 01:16:56;;;;;;;18.87;14.30;;;;;;;;;;4992070;28;20522;-50
2022/04/14 01:19:22;;;;;;;19.37;13.63;;;;;;;;;;4991627;28;20436;-51
2022/04/14 01:21:57;;;;;;;25.33;15.00;;;;;;;;;;4993932;28;20861;-51
2022/04/14 01:24:23;;;;;;;23.23;16.20;;;;;;;;;;4995907;28;20737;-51
2022/04/14 01:26:49;;;;;;;17.83;14.50;;;;;;;;;;4995797;28;20396;-50
2022/04/14 01:29:25;;;;;;;23.77;15.27;;;;;;;;;;4995883;28;20407;-50
2022/04/14 01:31:52;;;;;;;25.10;16.40;;;;;;;;;;4995964;28;20726;-50
2022/04/14 01:34:19;;;;;;;22.07;16.53;;;;;;;;;;4995439;28;20427;-51
2022/04/14 01:36:46;;;;;;;26.53;16.10;;;;;;;;;;4995624;28;20457;-51
2022/04/14 01:39:13;;;;;;;21.40;16.50;;;;;;;;;;4995304;28;20432;-49
2022/04/14 01:41:42;;;;;;;23.90;15.90;;;;;;;;;;4995767;28;20435;-50
2022/04/14 01:44:09;;;;;;;22.20;15.50;;;;;;;;;;4995506;28;20976;-51
2022/04/14 01:46:37;;;;;;;24.90;16.77;;;;;;;;;;4995119;28;20990;-52
2022/04/14 01:49:03;;;;;;;26.17;16.17;;;;;;;;;;4995264;28;20459;-51
2022/04/14 01:51:30;;;;;;;22.50;15.67;;;;;;;;;;4995624;28;20939;-51
2022/04/14 01:53:56;;;;;;;22.17;16.30;;;;;;;;;;4995258;28;20512;-51
2022/04/14 01:56:22;;;;;;;24.03;15.93;;;;;;;;;;4995219;28;20466;-51
2022/04/14 01:58:48;;;;;;;22.10;14.63;;;;;;;;;;4995090;28;20912;-51
2022/04/14 02:01:16;;;;;;;23.10;16.40;;;;;;;;;;4995558;28;20453;-49
2022/04/14 02:03:42;;;;;;;19.87;14.13;;;;;;;;;;4994910;28;20398;-49
2022/04/14 02:06:09;;;;;;;24.60;15.50;;;;;;;;;;4994653;28;20446;-50
2022/04/14 02:08:35;;;;;;;21.63;15.93;;;;;;;;;;4994507;28;20425;-50
2022/04/14 02:11:02;;;;;;;24.07;15.43;;;;;;;;;;4994782;28;20980;-49
2022/04/14 02:13:29;;;;;;;22.90;14.50;;;;;;;;;;4994558;28;20392;-49
2022/04/14 02:15:55;;;;;;;22.27;14.80;;;;;;;;;;4994940;28;20432;-49
2022/04/14 02:18:21;;;;;;;23.50;15.00;;;;;;;;;;4995353;28;20914;-50
2022/04/14 02:20:47;;;;;;;19.60;12.90;;;;;;;;;;4994842;28;20913;-51
2022/04/14 02:23:13;;;;;;;22.33;14.10;;;;;;;;;;4994726;28;20424;-51
2022/04/14 02:25:39;;;;;;;17.77;13.57;;;;;;;;;;4994689;28;20421;-51
2022/04/14 02:28:05;;;;;;;21.53;12.87;;;;;;;;;;4994825;28;20561;-51
2022/04/14 02:30:33;;;;;;;16.33;12.57;;;;;;;;;;4994768;28;20409;-51
2022/04/14 02:32:59;;;;;;;19.00;12.80;;;;;;;;;;4994087;28;20409;-50
2022/04/14 02:35:25;;;;;;;16.07;13.70;;;;;;;;;;4993698;28;20452;-52
2022/04/14 02:37:51;;;;;;;15.80;11.93;;;;;;;;;;4994651;28;20443;-51
2022/04/14 02:40:18;;;;;;;17.00;13.17;;;;;;;;;;4994115;28;20439;-51
2022/04/14 02:42:46;;;;;;;17.33;12.97;;;;;;;;;;4994636;28;20439;-51
2022/04/14 02:45:12;;;;;;;19.87;13.87;;;;;;;;;;4994142;28;20505;-51
2022/04/14 02:47:38;;;;;;;23.50;12.83;;;;;;;;;;4995030;28;20479;-51
2022/04/14 02:50:05;;;;;;;17.13;11.53;;;;;;;;;;4993981;28;20517;-51
2022/04/14 02:52:31;;;;;;;18.10;14.00;;;;;;;;;;4994303;28;20418;-52
2022/04/14 02:54:57;;;;;;;16.80;12.03;;;;;;;;;;4993920;28;20543;-51
2022/04/14 02:57:23;;;;;;;14.87;11.47;;;;;;;;;;4994319;28;20554;-51
2022/04/14 02:59:49;;;;;;;17.73;12.63;;;;;;;;;;4993865;28;20434;-50
2022/04/14 03:02:15;;;;;;;19.40;12.70;;;;;;;;;;4993148;28;20402;-50
2022/04/14 03:04:41;;;;;;;17.00;13.03;;;;;;;;;;4992873;28;20487;-51
2022/04/14 03:07:07;;;;;;;16.03;13.43;;;;;;;;;;4993938;28;20404;-51
2022/04/14 03:09:33;;;;;;;20.87;15.13;;;;;;;;;;4993156;28;20426;-50
2022/04/14 03:11:59;;;;;;;17.13;14.17;;;;;;;;;;4994275;28;20434;-50
2022/04/14 03:14:25;;;;;;;20.87;15.30;;;;;;;;;;4993637;28;20930;-51
2022/04/14 03:16:51;;;;;;;20.00;14.50;;;;;;;;;;4993985;28;20965;-50
2022/04/14 03:19:17;;;;;;;24.93;15.13;;;;;;;;;;4993564;28;20896;-50
2022/04/14 03:21:43;;;;;;;20.93;15.37;;;;;;;;;;4994247;28;20409;-51
2022/04/14 03:24:09;;;;;;;23.33;16.17;;;;;;;;;;4993676;28;20428;-51
2022/04/14 03:26:35;;;;;;;21.23;15.80;;;;;;;;;;4993725;28;20515;-51
2022/04/14 03:29:01;;;;;;;21.30;15.13;;;;;;;;;;4993463;28;20484;-50
2022/04/14 03:31:27;;;;;;;18.90;16.23;;;;;;;;;;4993856;28;20414;-50
2022/04/14 03:33:53;;;;;;;25.90;16.57;;;;;;;;;;4993485;28;20453;-51
2022/04/14 03:36:19;;;;;;;25.83;17.23;;;;;;;;;;4993360;28;20508;-50
2022/04/14 03:38:45;;;;;;;24.27;16.53;;;;;;;;;;4993261;28;20489;-50
2022/04/14 03:41:11;;;;;;;20.17;14.63;;;;;;;;;;4993693;28;20418;-51
2022/04/14 03:43:37;;;;;;;27.23;16.57;;;;;;;;;;4993323;28;20501;-51
2022/04/14 03:46:03;;;;;;;26.03;17.03;;;;;;;;;;4992315;28;20440;-50
2022/04/14 03:48:29;;;;;;;26.00;17.40;;;;;;;;;;4993363;28;20846;-49
2022/04/14 03:50:55;;;;;;;25.97;17.50;;;;;;;;;;4993090;28;20506;-50
2022/04/14 03:53:21;;;;;;;24.60;16.37;;;;;;;;;;4993513;28;20400;-50
2022/04/14 03:55:48;;;;;;;20.90;16.53;;;;;;;;;;4992898;28;20444;-50
2022/04/14 03:58:14;;;;;;;20.40;15.00;;;;;;;;;;4993380;28;20404;-51
2022/04/14 04:00:41;;;;;;;26.33;17.30;;;;;;;;;;4992802;28;20416;-51
2022/04/14 04:03:09;;;;;;;24.77;17.80;;;;;;;;;;4993173;28;20396;-49
2022/04/14 04:05:35;;;;;;;27.60;17.20;;;;;;;;;;4992733;28;20514;-50
2022/04/14 04:08:01;;;;;;;24.43;16.70;;;;;;;;;;4993107;28;20428;-50
2022/04/14 04:10:27;;;;;;;27.33;17.40;;;;;;;;;;4992717;28;20424;-49
2022/04/14 04:12:53;;;;;;;25.60;18.50;;;;;;;;;;4993076;28;20412;-49
2022/04/14 04:15:19;;;;;;;26.53;19.00;;;;;;;;;;4992429;28;20823;-51
2022/04/14 04:17:46;;;;;;;27.07;17.70;;;;;;;;;;4992398;28;20825;-51
2022/04/14 04:20:12;;;;;;;24.77;17.40;;;;;;;;;;4992541;28;20426;-50
2022/04/14 04:22:38;;;;;;;26.83;19.20;;;;;;;;;;4992890;28;20409;-50
2022/04/14 04:25:06;;;;;;;29.20;19.13;;;;;;;;;;4992385;28;20511;-51
2022/04/14 04:27:33;;;;;;;23.70;17.40;;;;;;;;;;4992780;28;20397;-51
2022/04/14 04:29:59;;;;;;;25.43;18.43;;;;;;;;;;4992398;28;20872;-50
2022/04/14 04:32:25;;;;;;;31.33;21.60;;;;;;;;;;4992550;28;20436;-50
2022/04/14 04:34:50;;;;;;;27.10;20.43;;;;;;;;;;4992201;28;20835;-49
2022/04/14 04:37:17;;;;;;;29.03;19.63;;;;;;;;;;4992662;28;20488;-51
2022/04/14 04:39:43;;;;;;;30.67;21.10;;;;;;;;;;4992171;28;21121;-50
2022/04/14 04:42:09;;;;;;;31.83;19.70;;;;;;;;;;4992663;28;20492;-50
2022/04/14 04:44:35;;;;;;;26.23;17.60;;;;;;;;;;4991950;28;20784;-49
2022/04/14 04:47:01;;;;;;;28.27;18.33;;;;;;;;;;4992544;28;20409;-50
2022/04/14 04:49:27;;;;;;;27.33;17.80;;;;;;;;;;4992331;28;20425;-50
2022/04/14 04:51:53;;;;;;;30.77;17.90;;;;;;;;;;4992680;28;20408;-50
2022/04/14 04:54:18;;;;;;;36.30;18.37;;;;;;;;;;4992047;28;20412;-51
2022/04/14 04:56:44;;;;;;;25.07;17.07;;;;;;;;;;4991910;28;20471;-51
2022/04/14 04:59:10;;;;;;;31.03;19.53;;;;;;;;;;4991980;28;20413;-50
2022/04/14 05:01:36;;;;;;;29.00;20.63;;;;;;;;;;4992292;28;20515;-50
2022/04/14 05:04:02;;;;;;;28.17;19.60;;;;;;;;;;4992458;28;20474;-50
2022/04/14 05:06:28;;;;;;;26.70;20.23;;;;;;;;;;4991844;28;20447;-50
2022/04/14 05:08:54;;;;;;;29.70;21.63;;;;;;;;;;4992287;28;20459;-49
2022/04/14 05:11:20;;;;;;;27.73;20.23;;;;;;;;;;4992041;28;20437;-50
2022/04/14 05:13:46;;;;;;;31.47;20.57;;;;;;;;;;4992382;28;20412;-51
2022/04/14 05:16:12;;;;;;;26.53;21.00;;;;;;;;;;4991139;28;20457;-51
2022/04/14 05:18:39;;;;;;;30.50;20.73;;;;;;;;;;4991815;28;20432;-51
2022/04/14 05:21:05;;;;;;;32.70;20.27;;;;;;;;;;4992381;28;20396;-50
2022/04/14 05:23:31;;;;;;;30.53;18.27;;;;;;;;;;4991697;28;20832;-51
2022/04/14 05:25:57;;;;;;;31.17;21.33;;;;;;;;;;4991558;28;20441;-50
2022/04/14 05:28:23;;;;;;;33.63;19.30;;;;;;;;;;4992097;28;20436;-49
2022/04/14 05:30:49;;;;;;;29.53;20.13;;;;;;;;;;4991718;28;20902;-50
2022/04/14 05:33:19;;;;;;;33.20;21.80;;;;;;;;;;4991907;28;20439;-50
2022/04/14 05:35:45;;;;;;;30.17;20.13;;;;;;;;;;4991828;28;20943;-50
2022/04/14 05:38:11;;;;;;;35.93;22.00;;;;;;;;;;4991741;28;20786;-51
2022/04/14 05:40:41;;;;;;;30.97;19.63;;;;;;;;;;4991970;28;20411;-50
2022/04/14 05:46:15;;;;;;;31.53;20.93;;;;;;;;;;4966678;28;20814;-50
2022/04/14 05:48:41;;;;;;;33.00;22.57;;;;;;;;;;4991598;28;20412;-49
2022/04/14 05:51:06;;;;;;;34.83;24.30;;;;;;;;;;4991930;28;20574;-51
2022/04/14 05:53:32;;;;;;;34.63;24.47;;;;;;;;;;4991652;28;20529;-49
2022/04/14 05:55:58;;;;;;;35.27;23.53;;;;;;;;;;4991782;28;20458;-50
2022/04/14 05:58:24;;;;;;;37.27;24.20;;;;;;;;;;4991433;28;20952;-50
2022/04/14 06:00:50;;;;;;;39.00;26.50;;;;;;;;;;4991835;28;20456;-51
2022/04/14 06:03:16;;;;;;;38.57;25.30;;;;;;;;;;4990904;28;21273;-51
2022/04/14 06:05:42;;;;;;;36.93;23.60;;;;;;;;;;4990743;28;20487;-47
2022/04/14 06:08:08;;;;;;;34.37;23.60;;;;;;;;;;4989124;28;20467;-47
2022/04/14 06:10:35;;;;;;;38.40;27.20;;;;;;;;;;4994372;28;20913;-47
2022/04/14 06:13:01;;;;;;;34.73;24.30;;;;;;;;;;4994784;28;20909;-46
2022/04/14 06:15:27;;;;;;;37.60;25.03;;;;;;;;;;4994782;28;20440;-47
2022/04/14 06:17:53;;;;;;;37.80;24.90;;;;;;;;;;4993998;28;20471;-47
2022/04/14 06:20:20;;;;;;;37.87;24.63;;;;;;;;;;4993727;28;20413;-47
2022/04/14 06:22:46;;;;;;;35.03;25.10;;;;;;;;;;4993697;28;20453;-47
2022/04/14 06:25:14;;;;;;;39.30;23.63;;;;;;;;;;4993251;28;20480;-47
2022/04/14 06:27:43;;;;;;;34.50;24.30;;;;;;;;;;4988502;28;20417;-52
2022/04/14 06:30:10;;;;;;;33.10;23.63;;;;;;;;;;4993656;28;20447;-51
2022/04/14 06:32:36;;;;;;;35.53;24.53;;;;;;;;;;4987385;28;20439;-50
2022/04/14 06:35:03;;;;;;;33.80;25.07;;;;;;;;;;4991781;28;20469;-49
2022/04/14 06:37:29;;;;;;;34.10;24.50;;;;;;;;;;4988996;28;20522;-50
2022/04/14 06:39:55;;;;;;;39.23;24.27;;;;;;;;;;4989708;28;21130;-50
2022/04/14 06:42:24;;;;;;;33.40;24.27;;;;;;;;;;4992362;28;20800;-51
2022/04/14 06:44:50;;;;;;;35.20;25.47;;;;;;;;;;4993945;28;20427;-51
2022/04/14 06:47:16;;;;;;;33.03;24.03;;;;;;;;;;4994016;28;20437;-51
2022/04/14 06:49:42;;;;;;;33.60;24.57;;;;;;;;;;4993416;28;20426;-47
2022/04/14 06:52:08;;;;;;;40.80;25.90;;;;;;;;;;4994041;28;20532;-47
2022/04/14 06:54:34;;;;;;;38.10;26.57;;;;;;;;;;4994340;28;20499;-46
2022/04/14 06:57:00;;;;;;;36.90;24.87;;;;;;;;;;4994433;28;20479;-47
2022/04/14 06:59:27;;;;;;;33.83;26.00;;;;;;;;;;4993748;28;20423;-47
2022/04/14 07:01:53;;;;;;;37.80;26.37;;;;;;;;;;4993813;28;20421;-46
2022/04/14 07:04:19;;;;;;;39.67;25.07;;;;;;;;;;4993698;28;20398;-46
2022/04/14 07:06:46;;;;;;;37.63;26.80;;;;;;;;;;4994236;28;20483;-47
2022/04/14 07:09:12;;;;;;;36.57;26.60;;;;;;;;;;4994154;28;20787;-48
2022/04/14 07:11:38;;;;;;;36.63;26.53;;;;;;;;;;4993784;28;20432;-50
2022/04/14 07:14:04;;;;;;;38.40;26.30;;;;;;;;;;4993660;28;20433;-46
2022/04/14 07:16:30;;;;;;;39.77;26.33;;;;;;;;;;4993630;28;20434;-46
2022/04/14 07:18:56;;;;;;;39.00;27.60;;;;;;;;;;4993506;28;20424;-47
2022/04/14 07:21:22;;;;;;;47.47;27.57;;;;;;;;;;4993674;28;20481;-48
2022/04/14 07:23:48;;;;;;;41.53;29.07;;;;;;;;;;4993959;28;20387;-47
2022/04/14 07:26:14;;;;;;;41.00;26.10;;;;;;;;;;4993175;28;20505;-47
2022/04/14 07:28:40;;;;;;;42.23;28.17;;;;;;;;;;4993847;28;20398;-49
2022/04/14 07:31:06;;;;;;;36.43;27.23;;;;;;;;;;4993072;28;20432;-50
2022/04/14 07:33:34;;;;;;;42.93;28.53;;;;;;;;;;4993227;28;20455;-50
2022/04/14 07:36:00;;;;;;;38.03;28.20;;;;;;;;;;4993510;28;20433;-47
2022/04/14 07:38:26;;;;;;;40.87;27.67;;;;;;;;;;4993390;28;20441;-46
2022/04/14 07:40:52;;;;;;;42.50;28.77;;;;;;;;;;4989345;28;20396;-47
2022/04/14 07:43:19;;;;;;;48.20;31.17;;;;;;;;;;4990972;28;20432;-48
2022/04/14 07:45:45;;;;;;;50.03;30.70;;;;;;;;;;4991283;28;20929;-49
2022/04/14 07:48:12;;;;;;;42.60;29.57;;;;;;;;;;4986693;28;20432;-47
2022/04/14 07:50:38;;;;;;;49.10;30.77;;;;;;;;;;4991820;28;20433;-49
2022/04/14 07:53:04;;;;;;;45.13;31.27;;;;;;;;;;4992300;28;20401;-50
2022/04/14 07:55:31;;;;;;;45.63;31.30;;;;;;;;;;4991507;28;20414;-49
2022/04/14 07:57:58;;;;;;;47.70;30.60;;;;;;;;;;4991160;28;21065;-49
2022/04/14 08:00:25;;;;;;;45.20;30.17;;;;;;;;;;4992514;28;20756;-49
2022/04/14 08:02:56;;;;;;;48.33;31.97;;;;;;;;;;4992031;28;20399;-49
2022/04/14 08:05:33;;;;;;;51.20;30.40;;;;;;;;;;4992774;28;20518;-48
2022/04/14 08:07:59;;;;;;;45.53;31.60;;;;;;;;;;4992378;28;20426;-52
2022/04/14 08:10:25;;;;;;;45.87;30.07;;;;;;;;;;4992909;28;20457;-52
2022/04/14 08:12:51;;;;;;;51.47;31.83;;;;;;;;;;4992866;28;20477;-52
2022/04/14 08:15:17;;;;;;;40.90;29.77;;;;;;;;;;4992648;28;20426;-52
2022/04/14 08:17:44;;;;;;;46.90;29.27;;;;;;;;;;4992397;28;20460;-50
2022/04/14 08:20:12;;;;;;;43.00;30.60;;;;;;;;;;4991936;28;20927;-53
2022/04/14 08:22:44;;;;;;;43.47;29.70;;;;;;;;;;4992526;28;20391;-51
2022/04/14 08:25:10;;;;;;;43.33;28.20;;;;;;;;;;4992498;28;20422;-51
2022/04/14 08:27:36;;;;;;;46.57;29.93;;;;;;;;;;4992558;28;20451;-52
2022/04/14 08:30:02;;;;;;;46.13;31.13;;;;;;;;;;4992231;28;20462;-51
2022/04/14 08:32:28;;;;;;;51.90;32.90;;;;;;;;;;4992252;28;20446;-51
2022/04/14 08:34:54;;;;;;;50.47;32.53;;;;;;;;;;4991461;28;20447;-51
2022/04/14 08:37:20;;;;;;;42.30;30.87;;;;;;;;;;4991859;28;20478;-52
2022/04/14 08:39:46;;;;;;;47.00;34.67;;;;;;;;;;4992033;28;20412;-52
2022/04/14 08:42:14;;;;;;;48.23;34.50;;;;;;;;;;4992176;28;20412;-54
2022/04/14 08:44:42;;;;;;;56.63;37.13;;;;;;;;;;4992048;28;20420;-52
2022/04/14 08:47:09;;;;;;;47.53;35.27;;;;;;;;;;4992413;28;20420;-54
2022/04/14 08:49:35;;;;;;;51.17;36.37;;;;;;;;;;4992147;28;20438;-50
2022/04/14 08:52:02;;;;;;;44.13;35.00;;;;;;;;;;4991689;28;20431;-52
2022/04/14 08:54:28;;;;;;;52.80;38.73;;;;;;;;;;4991934;28;20420;-49
2022/04/14 08:56:58;;;;;;;50.87;37.83;;;;;;;;;;4991695;28;20553;-49
2022/04/14 08:59:25;;;;;;;47.20;37.50;;;;;;;;;;4992159;28;20422;-49
2022/04/14 09:01:51;;;;;;;51.23;36.40;;;;;;;;;;4991949;28;20540;-49
2022/04/14 09:04:17;;;;;;;47.93;35.40;;;;;;;;;;4992106;28;20419;-51
2022/04/14 09:06:43;;;;;;;44.93;34.33;;;;;;;;;;4991819;28;20820;-51
2022/04/14 09:09:09;;;;;;;48.07;34.97;;;;;;;;;;4991937;28;20420;-51
2022/04/14 09:11:35;;;;;;;41.37;33.23;;;;;;;;;;4991964;28;20412;-49
2022/04/14 09:14:02;;;;;;;39.13;30.50;;;;;;;;;;4991457;28;20417;-49
2022/04/14 09:16:30;;;;;;;36.60;29.10;;;;;;;;;;4991584;28;20498;-49
2022/04/14 09:18:56;;;;;;;34.80;26.80;;;;;;;;;;4991821;28;20795;-51
2022/04/14 09:21:22;;;;;;;29.50;25.87;;;;;;;;;;4986919;28;20416;-48
2022/04/14 09:23:52;;;;;;;38.00;30.43;;;;;;;;;;4990414;28;20428;-48
2022/04/14 09:26:23;;;;;;;33.93;28.13;;;;;;;;;;4991189;28;20443;-48
2022/04/14 09:29:01;;;;;;;27.47;23.17;;;;;;;;;;4991675;28;20419;-48
2022/04/14 09:31:28;;;;;;;25.83;18.77;;;;;;;;;;4991443;28;20929;-51
2022/04/14 09:33:55;;;;;;;18.90;16.60;;;;;;;;;;4991772;28;20499;-48
2022/04/14 09:36:23;;;;;;;21.60;16.70;;;;;;;;;;4991513;28;20962;-49
2022/04/14 09:38:52;;;;;;;18.00;15.30;;;;;;;;;;4991467;28;20435;-50
2022/04/14 09:41:30;;;;;;;24.30;17.70;;;;;;;;;;4991224;28;20416;-52
2022/04/14 09:43:57;;;;;;;23.10;17.40;;;;;;;;;;4994027;28;20915;-52
2022/04/14 09:46:23;;;;;;;21.63;19.13;;;;;;;;;;4992889;28;20439;-51
2022/04/14 09:49:01;;;;;;;20.87;18.50;;;;;;;;;;4994921;28;20412;-52
2022/04/14 09:51:27;;;;;;;20.23;16.77;;;;;;;;;;4994134;28;20448;-48
2022/04/14 09:54:14;;;;;;;20.23;17.43;;;;;;;;;;4995317;28;20419;-52
2022/04/14 09:56:42;;;;;;;18.37;16.33;;;;;;;;;;4994854;28;21025;-48
2022/04/14 09:59:08;;;;;;;15.73;13.40;;;;;;;;;;4995213;28;20955;-52
2022/04/14 10:01:34;;;;;;;20.27;18.27;;;;;;;;;;4995362;28;20470;-52
2022/04/14 10:04:01;;;;;;;28.23;22.73;;;;;;;;;;4995194;28;20789;-51
2022/04/14 10:06:27;;;;;;;20.37;18.17;;;;;;;;;;4995193;28;20451;-48
2022/04/14 10:08:53;;;;;;;20.73;17.40;;;;;;;;;;4994363;28;20482;-50
2022/04/14 10:11:27;;;;;;;16.07;13.90;;;;;;;;;;4995091;28;20503;-50
2022/04/14 10:13:53;;;;;;;14.63;13.13;;;;;;;;;;4995169;28;20414;-49
2022/04/14 10:16:21;;;;;;;14.90;13.27;;;;;;;;;;4994597;28;20463;-50
2022/04/14 10:18:47;;;;;;;19.70;16.57;;;;;;;;;;4995043;28;20424;-48
2022/04/14 10:21:14;;;;;;;21.13;19.03;;;;;;;;;;4994534;28;20420;-49
2022/04/14 10:23:41;;;;;;;22.37;20.07;;;;;;;;;;4994933;28;20416;-51
2022/04/14 10:26:08;;;;;;;21.20;19.00;;;;;;;;;;4994303;28;20444;-49
2022/04/14 10:28:35;;;;;;;21.53;19.43;;;;;;;;;;4994914;28;20503;-49
2022/04/14 10:31:01;;;;;;;25.37;22.77;;;;;;;;;;4994970;28;20426;-51
2022/04/14 10:33:28;;;;;;;23.27;21.00;;;;;;;;;;4994523;28;21007;-49
2022/04/14 10:35:55;;;;;;;19.17;17.37;;;;;;;;;;4994304;28;20851;-48
2022/04/14 10:38:21;;;;;;;16.50;15.00;;;;;;;;;;4994344;28;20435;-48
2022/04/14 10:40:48;;;;;;;17.43;15.70;;;;;;;;;;4994291;28;20428;-48
2022/04/14 10:43:18;;;;;;;15.20;13.70;;;;;;;;;;4975532;28;20416;-48
2022/04/14 10:45:50;;;;;;;17.83;16.00;;;;;;;;;;4991621;28;20527;-51
2022/04/14 10:48:29;;;;;;;26.60;23.97;;;;;;;;;;4994541;28;20499;-51
2022/04/14 10:51:14;;;;;;;23.70;21.27;;;;;;;;;;4994308;28;20447;-48
2022/04/14 10:53:51;;;;;;;19.70;17.63;;;;;;;;;;4993863;28;20406;-51
2022/04/14 10:56:35;;;;;;;19.57;17.50;;;;;;;;;;4994104;28;20963;-50
2022/04/14 10:59:04;;;;;;;19.40;17.50;;;;;;;;;;4994035;28;20419;-53
2022/04/14 11:01:50;;;;;;;17.10;15.47;;;;;;;;;;4994172;28;20425;-48
2022/04/14 11:04:35;;;;;;;18.47;16.63;;;;;;;;;;4994121;28;20912;-52
2022/04/14 11:07:14;;;;;;;19.80;17.00;;;;;;;;;;4994147;28;20959;-49
2022/04/14 11:09:48;;;;;;;18.00;16.17;;;;;;;;;;4994015;28;20763;-50
2022/04/14 11:12:16;;;;;;;13.50;12.03;;;;;;;;;;4993897;28;20768;-51
2022/04/14 11:14:51;;;;;;;13.23;10.30;;;;;;;;;;4993327;28;20771;-50
2022/04/14 11:17:48;;;;;;;18.03;16.27;;;;;;;;;;4993380;28;20475;-49
2022/04/14 11:20:15;;;;;;;22.80;20.27;;;;;;;;;;4993671;28;20828;-48
2022/04/14 11:22:59;;;;;;;23.70;20.50;;;;;;;;;;4993905;28;20463;-52
2022/04/14 11:25:57;;;;;;;15.97;14.27;;;;;;;;;;4993311;28;20419;-51
2022/04/14 11:28:24;;;;;;;22.53;20.33;;;;;;;;;;4943027;28;21054;-49
2022/04/14 11:30:51;;;;;;;23.13;20.77;;;;;;;;;;4987000;28;20424;-49
2022/04/14 11:33:28;;;;;;;20.23;18.33;;;;;;;;;;4993471;28;20411;-49
2022/04/14 11:35:54;;;;;;;19.87;17.87;;;;;;;;;;4993131;28;20432;-48
2022/04/14 11:38:39;;;;;;;20.13;18.33;;;;;;;;;;4993451;28;20432;-49
2022/04/14 11:41:05;;;;;;;14.83;13.17;;;;;;;;;;4993257;28;21164;-51
2022/04/14 11:43:31;;;;;;;12.63;11.33;;;;;;;;;;4993639;28;20499;-49
2022/04/14 11:45:57;;;;;;;12.67;11.37;;;;;;;;;;4992693;28;20427;-50
2022/04/14 11:48:23;;;;;;;13.97;11.67;;;;;;;;;;4993605;28;20411;-51
2022/04/14 11:50:55;;;;;;;13.43;12.03;;;;;;;;;;4993369;28;20420;-48
2022/04/14 11:53:29;;;;;;;13.70;11.93;;;;;;;;;;4984912;28;20975;-51
2022/04/14 11:55:56;;;;;;;12.80;11.70;;;;;;;;;;4992614;28;20431;-52
2022/04/14 11:58:22;;;;;;;10.43;9.50;;;;;;;;;;4993490;28;20490;-52
2022/04/14 12:00:49;;;;;;;9.97;8.93;;;;;;;;;;4993507;28;20473;-49
2022/04/14 12:03:16;;;;;;;8.67;7.87;;;;;;;;;;5001866;28;20420;-49
2022/04/14 12:05:51;;;;;;;11.43;9.03;;;;;;;;;;4993517;28;20431;-49
2022/04/14 12:08:17;;;;;;;8.13;7.43;;;;;;;;;;5012537;28;20467;-52
2022/04/14 12:10:44;;;;;;;10.33;9.20;;;;;;;;;;4991877;28;20916;-52
2022/04/14 12:13:10;;;;;;;10.50;9.60;;;;;;;;;;4992034;28;20424;-52
2022/04/14 12:15:37;;;;;;;10.87;9.83;;;;;;;;;;5004465;28;20431;-50
2022/04/14 12:18:06;;;;;;;11.37;10.23;;;;;;;;;;5003991;28;20522;-50
2022/04/14 12:20:46;;;;;;;13.13;11.87;;;;;;;;;;4989017;28;20457;-50
2022/04/14 12:23:12;;;;;;;12.27;11.17;;;;;;;;;;4992606;28;20412;-52
2022/04/14 12:25:39;;;;;;;13.90;11.83;;;;;;;;;;4992652;28;20914;-50
2022/04/14 12:28:05;;;;;;;12.13;11.03;;;;;;;;;;4992945;28;20408;-50
2022/04/14 12:30:31;;;;;;;11.13;10.10;;;;;;;;;;4992795;28;20470;-50
2022/04/14 12:33:01;;;;;;;11.53;10.40;;;;;;;;;;5007576;28;20557;-51
2022/04/14 12:35:32;;;;;;;11.47;9.87;;;;;;;;;;5011988;28;20518;-53
2022/04/14 12:38:11;;;;;;;12.90;11.60;;;;;;;;;;4995217;28;20471;-49
2022/04/14 12:40:37;;;;;;;10.53;9.40;;;;;;;;;;4992002;28;20493;-54
2022/04/14 12:43:06;;;;;;;9.30;8.50;;;;;;;;;;4991983;28;20982;-54
2022/04/14 12:45:37;;;;;;;9.70;8.70;;;;;;;;;;4991052;28;20565;-54
2022/04/14 12:48:05;;;;;;;9.80;8.97;;;;;;;;;;4992707;28;20467;-54
2022/04/14 12:50:31;;;;;;;9.00;8.17;;;;;;;;;;4992197;28;20449;-54
2022/04/14 12:52:57;;;;;;;9.13;8.23;;;;;;;;;;4992105;28;20502;-53
2022/04/14 12:55:24;;;;;;;9.83;8.93;;;;;;;;;;4992184;28;20431;-54
2022/04/14 12:57:55;;;;;;;10.10;9.10;;;;;;;;;;4992307;28;20452;-49
2022/04/14 13:00:21;;;;;;;8.60;7.20;;;;;;;;;;4992150;28;20494;-52
2022/04/14 13:03:01;;;;;;;14.80;8.70;;;;;;;;;;4992481;28;20435;-54
2022/04/14 13:05:28;;;;;;;9.87;8.03;;;;;;;;;;4993653;28;20490;-52
2022/04/14 13:07:55;;;;;;;11.30;7.60;;;;;;;;;;5011975;28;20431;-51
2022/04/14 13:10:28;;;;;;;8.77;7.97;;;;;;;;;;5000048;28;20893;-51
2022/04/14 13:12:54;;;;;;;7.13;6.43;;;;;;;;;;4992163;28;20428;-52
2022/04/14 13:15:21;;;;;;;7.63;6.07;;;;;;;;;;4991660;28;20455;-53
2022/04/14 13:17:47;;;;;;;6.87;6.03;;;;;;;;;;4993653;28;20487;-53
2022/04/14 13:20:19;;;;;;;5.43;4.93;;;;;;;;;;4995822;28;20459;-51
2022/04/14 13:22:47;;;;;;;3.73;3.43;;;;;;;;;;4995609;28;20462;-50
2022/04/14 13:25:14;;;;;;;4.13;3.50;;;;;;;;;;4995681;28;20432;-52
2022/04/14 13:27:40;;;;;;;4.63;4.23;;;;;;;;;;4995977;28;20408;-52
2022/04/14 13:30:07;;;;;;;5.50;5.00;;;;;;;;;;4977815;28;20553;-51
2022/04/14 13:32:33;;;;;;;8.00;5.13;;;;;;;;;;4994808;28;20415;-51
2022/04/14 13:34:59;;;;;;;5.67;5.17;;;;;;;;;;4994999;28;21002;-50
2022/04/14 13:37:25;;;;;;;4.27;3.90;;;;;;;;;;4995401;28;20869;-51
2022/04/14 13:39:51;;;;;;;4.33;3.90;;;;;;;;;;4995548;28;20412;-50
2022/04/14 13:42:17;;;;;;;5.47;4.60;;;;;;;;;;4995741;28;20416;-49
2022/04/14 13:44:43;;;;;;;5.17;3.77;;;;;;;;;;4994979;28;20412;-52
2022/04/14 13:47:09;;;;;;;4.30;3.90;;;;;;;;;;4995537;28;20420;-49
2022/04/14 13:49:35;;;;;;;4.83;4.03;;;;;;;;;;4995352;28;20438;-52
2022/04/14 13:52:02;;;;;;;4.83;4.20;;;;;;;;;;4995567;28;20424;-52
2022/04/14 13:54:28;;;;;;;4.30;3.73;;;;;;;;;;4994240;28;20435;-49
2022/04/14 13:56:55;;;;;;;5.13;4.73;;;;;;;;;;4995220;28;20466;-49
2022/04/14 13:59:21;;;;;;;4.50;4.13;;;;;;;;;;4994282;28;20926;-49
2022/04/14 14:01:47;;;;;;;5.67;5.17;;;;;;;;;;4995240;28;20921;-49
2022/04/14 14:04:13;;;;;;;5.67;5.17;;;;;;;;;;4993731;28;20404;-51
2022/04/14 14:06:39;;;;;;;5.70;5.13;;;;;;;;;;5006424;28;20512;-50
2022/04/14 14:09:05;;;;;;;6.30;5.70;;;;;;;;;;5004504;28;20417;-49
2022/04/14 14:11:31;;;;;;;6.23;5.63;;;;;;;;;;4994483;28;21009;-50
2022/04/14 14:13:57;;;;;;;5.67;5.17;;;;;;;;;;4995182;28;20446;-50
2022/04/14 14:16:23;;;;;;;5.80;5.13;;;;;;;;;;4995015;28;20470;-52
2022/04/14 14:18:50;;;;;;;7.10;4.80;;;;;;;;;;4995270;28;20937;-52
2022/04/14 14:21:16;;;;;;;6.30;5.27;;;;;;;;;;4995144;28;20415;-51
2022/04/14 14:23:42;;;;;;;6.10;5.60;;;;;;;;;;4994833;28;20409;-50
2022/04/14 14:26:08;;;;;;;10.93;6.20;;;;;;;;;;4994851;28;20443;-50